sensor_id;sensor_type;location;lat;lon;timestamp;P1;durP1;ratioP1;P2;durP2;ratioP2
19889;SDS011;10107;51.198;6.824;2023-04-06T00:01:32;12.10;;;7.28;;
19889;SDS011;10107;51.198;6.824;2023-04-06T00:05:33;14.07;;;8.88;;
19889;SDS011;10107;51.198;6.824;2023-04-06T00:09:35;16.73;;;8.55;;
19889;SDS011;10107;51.198;6.824;2023-04-06T00:13:37;15.43;;;8.55;;
19889;SDS011;10107;51.198;6.824;2023-04-06T00:17:40;16.60;;;9.35;;
19889;SDS011;10107;51.198;6.824;2023-04-06T00:21:42;13.27;;;8.15;;
19889;SDS011;10107;51.198;6.824;2023-04-06T00:25:43;15.10;;;8.73;;
19889;SDS011;10107;51.198;6.824;2023-04-06T00:29:45;14.50;;;8.38;;
19889;SDS011;10107;51.198;6.824;2023-04-06T00:33:49;14.15;;;8.73;;
19889;SDS011;10107;51.198;6.824;2023-04-06T00:37:50;12.82;;;7.85;;
19889;SDS011;10107;51.198;6.824;2023-04-06T00:41:52;15.70;;;9.52;;
19889;SDS011;10107;51.198;6.824;2023-04-06T00:49:59;14.15;;;8.57;;
19889;SDS011;10107;51.198;6.824;2023-04-06T00:54:00;13.43;;;8.77;;
19889;SDS011;10107;51.198;6.824;2023-04-06T00:58:05;13.63;;;8.82;;
19889;SDS011;10107;51.198;6.824;2023-04-06T01:02:15;14.38;;;9.02;;
19889;SDS011;10107;51.198;6.824;2023-04-06T01:06:23;13.68;;;8.82;;
19889;SDS011;10107;51.198;6.824;2023-04-06T01:10:33;13.85;;;8.73;;
19889;SDS011;10107;51.198;6.824;2023-04-06T01:14:44;15.02;;;9.05;;
19889;SDS011;10107;51.198;6.824;2023-04-06T01:18:45;16.50;;;9.00;;
19889;SDS011;10107;51.198;6.824;2023-04-06T01:22:53;14.95;;;8.93;;
19889;SDS011;10107;51.198;6.824;2023-04-06T01:26:55;14.85;;;9.20;;
19889;SDS011;10107;51.198;6.824;2023-04-06T01:30:59;13.40;;;9.40;;
19889;SDS011;10107;51.198;6.824;2023-04-06T01:35:21;15.30;;;8.95;;
19889;SDS011;10107;51.198;6.824;2023-04-06T01:39:50;13.65;;;8.77;;
19889;SDS011;10107;51.198;6.824;2023-04-06T01:44:01;14.43;;;8.98;;
19889;SDS011;10107;51.198;6.824;2023-04-06T01:48:05;14.68;;;9.25;;
19889;SDS011;10107;51.198;6.824;2023-04-06T01:52:07;16.00;;;9.55;;
19889;SDS011;10107;51.198;6.824;2023-04-06T01:56:13;15.43;;;10.25;;
19889;SDS011;10107;51.198;6.824;2023-04-06T02:00:21;15.77;;;9.93;;
19889;SDS011;10107;51.198;6.824;2023-04-06T02:04:27;15.52;;;9.40;;
19889;SDS011;10107;51.198;6.824;2023-04-06T02:08:41;15.50;;;9.60;;
19889;SDS011;10107;51.198;6.824;2023-04-06T02:12:44;17.88;;;9.35;;
19889;SDS011;10107;51.198;6.824;2023-04-06T02:16:53;13.30;;;8.88;;
19889;SDS011;10107;51.198;6.824;2023-04-06T02:20:56;18.08;;;9.90;;
19889;SDS011;10107;51.198;6.824;2023-04-06T02:24:58;15.23;;;9.75;;
19889;SDS011;10107;51.198;6.824;2023-04-06T02:29:01;13.55;;;8.95;;
19889;SDS011;10107;51.198;6.824;2023-04-06T02:33:03;15.63;;;10.30;;
19889;SDS011;10107;51.198;6.824;2023-04-06T02:37:13;14.48;;;9.90;;
19889;SDS011;10107;51.198;6.824;2023-04-06T02:41:15;15.50;;;9.75;;
19889;SDS011;10107;51.198;6.824;2023-04-06T02:45:19;12.90;;;7.67;;
19889;SDS011;10107;51.198;6.824;2023-04-06T02:49:21;16.60;;;10.13;;
19889;SDS011;10107;51.198;6.824;2023-04-06T02:53:28;14.82;;;9.85;;
19889;SDS011;10107;51.198;6.824;2023-04-06T02:57:30;16.60;;;10.48;;
19889;SDS011;10107;51.198;6.824;2023-04-06T03:01:33;15.93;;;9.63;;
19889;SDS011;10107;51.198;6.824;2023-04-06T03:05:38;15.45;;;9.10;;
19889;SDS011;10107;51.198;6.824;2023-04-06T03:09:40;14.50;;;9.60;;
19889;SDS011;10107;51.198;6.824;2023-04-06T03:13:42;15.43;;;9.18;;
19889;SDS011;10107;51.198;6.824;2023-04-06T03:17:46;15.55;;;10.20;;
19889;SDS011;10107;51.198;6.824;2023-04-06T03:22:04;16.50;;;10.52;;
19889;SDS011;10107;51.198;6.824;2023-04-06T03:26:06;18.48;;;10.82;;
19889;SDS011;10107;51.198;6.824;2023-04-06T03:30:08;18.15;;;10.13;;
19889;SDS011;10107;51.198;6.824;2023-04-06T03:34:12;15.93;;;9.73;;
19889;SDS011;10107;51.198;6.824;2023-04-06T03:38:14;17.48;;;9.70;;
19889;SDS011;10107;51.198;6.824;2023-04-06T03:42:16;15.25;;;10.30;;
19889;SDS011;10107;51.198;6.824;2023-04-06T03:46:26;19.45;;;11.52;;
19889;SDS011;10107;51.198;6.824;2023-04-06T03:50:32;17.17;;;10.77;;
19889;SDS011;10107;51.198;6.824;2023-04-06T03:54:34;15.73;;;9.80;;
19889;SDS011;10107;51.198;6.824;2023-04-06T03:58:36;16.90;;;10.82;;
19889;SDS011;10107;51.198;6.824;2023-04-06T04:02:38;20.60;;;11.23;;
19889;SDS011;10107;51.198;6.824;2023-04-06T04:06:42;16.80;;;10.43;;
19889;SDS011;10107;51.198;6.824;2023-04-06T04:10:43;17.75;;;10.50;;
19889;SDS011;10107;51.198;6.824;2023-04-06T04:14:47;19.02;;;10.60;;
19889;SDS011;10107;51.198;6.824;2023-04-06T04:18:48;17.27;;;10.55;;
19889;SDS011;10107;51.198;6.824;2023-04-06T04:22:51;16.27;;;9.93;;
19889;SDS011;10107;51.198;6.824;2023-04-06T04:26:53;15.82;;;9.57;;
19889;SDS011;10107;51.198;6.824;2023-04-06T04:30:56;13.68;;;8.77;;
19889;SDS011;10107;51.198;6.824;2023-04-06T04:34:58;14.75;;;9.57;;
19889;SDS011;10107;51.198;6.824;2023-04-06T04:39:10;14.93;;;9.23;;
19889;SDS011;10107;51.198;6.824;2023-04-06T04:43:16;17.05;;;9.35;;
19889;SDS011;10107;51.198;6.824;2023-04-06T04:47:19;12.48;;;8.90;;
19889;SDS011;10107;51.198;6.824;2023-04-06T04:51:22;14.75;;;9.13;;
19889;SDS011;10107;51.198;6.824;2023-04-06T04:55:39;14.07;;;8.55;;
19889;SDS011;10107;51.198;6.824;2023-04-06T04:59:42;15.63;;;9.02;;
19889;SDS011;10107;51.198;6.824;2023-04-06T05:03:51;14.68;;;8.93;;
19889;SDS011;10107;51.198;6.824;2023-04-06T05:07:52;14.38;;;9.15;;
19889;SDS011;10107;51.198;6.824;2023-04-06T05:12:06;15.43;;;9.05;;
19889;SDS011;10107;51.198;6.824;2023-04-06T05:16:16;13.88;;;8.85;;
19889;SDS011;10107;51.198;6.824;2023-04-06T05:20:18;12.70;;;8.63;;
19889;SDS011;10107;51.198;6.824;2023-04-06T05:24:23;15.40;;;9.35;;
19889;SDS011;10107;51.198;6.824;2023-04-06T05:28:27;13.93;;;9.20;;
19889;SDS011;10107;51.198;6.824;2023-04-06T05:32:29;13.23;;;9.15;;
19889;SDS011;10107;51.198;6.824;2023-04-06T05:36:31;12.35;;;8.23;;
19889;SDS011;10107;51.198;6.824;2023-04-06T05:40:37;15.00;;;7.88;;
19889;SDS011;10107;51.198;6.824;2023-04-06T05:44:44;13.45;;;9.02;;
19889;SDS011;10107;51.198;6.824;2023-04-06T05:48:49;13.00;;;8.82;;
19889;SDS011;10107;51.198;6.824;2023-04-06T05:52:53;11.70;;;8.05;;
19889;SDS011;10107;51.198;6.824;2023-04-06T05:56:58;14.35;;;9.52;;
19889;SDS011;10107;51.198;6.824;2023-04-06T06:01:01;15.38;;;8.77;;
19889;SDS011;10107;51.198;6.824;2023-04-06T06:05:15;13.07;;;7.85;;
19889;SDS011;10107;51.198;6.824;2023-04-06T06:09:17;15.38;;;8.30;;
19889;SDS011;10107;51.198;6.824;2023-04-06T06:13:30;12.38;;;7.65;;
19889;SDS011;10107;51.198;6.824;2023-04-06T06:17:33;11.32;;;7.78;;
19889;SDS011;10107;51.198;6.824;2023-04-06T06:21:35;12.20;;;7.88;;
19889;SDS011;10107;51.198;6.824;2023-04-06T06:25:39;11.73;;;8.27;;
19889;SDS011;10107;51.198;6.824;2023-04-06T06:29:41;14.07;;;8.90;;
19889;SDS011;10107;51.198;6.824;2023-04-06T06:33:46;14.38;;;8.18;;
19889;SDS011;10107;51.198;6.824;2023-04-06T06:37:50;11.60;;;7.15;;
19889;SDS011;10107;51.198;6.824;2023-04-06T06:41:56;11.60;;;8.27;;
19889;SDS011;10107;51.198;6.824;2023-04-06T06:46:17;13.57;;;7.88;;
19889;SDS011;10107;51.198;6.824;2023-04-06T06:50:21;14.30;;;7.53;;
19889;SDS011;10107;51.198;6.824;2023-04-06T06:54:23;11.65;;;7.60;;
19889;SDS011;10107;51.198;6.824;2023-04-06T06:58:24;11.55;;;7.60;;
19889;SDS011;10107;51.198;6.824;2023-04-06T07:02:27;10.05;;;7.65;;
19889;SDS011;10107;51.198;6.824;2023-04-06T07:06:30;11.43;;;7.38;;
19889;SDS011;10107;51.198;6.824;2023-04-06T07:10:32;6.95;;;5.32;;
19889;SDS011;10107;51.198;6.824;2023-04-06T07:14:34;10.40;;;7.50;;
19889;SDS011;10107;51.198;6.824;2023-04-06T07:18:37;6.75;;;4.95;;
19889;SDS011;10107;51.198;6.824;2023-04-06T07:22:40;9.50;;;7.15;;
19889;SDS011;10107;51.198;6.824;2023-04-06T07:26:43;9.25;;;7.07;;
19889;SDS011;10107;51.198;6.824;2023-04-06T07:30:44;10.35;;;7.82;;
19889;SDS011;10107;51.198;6.824;2023-04-06T07:34:47;9.88;;;7.90;;
19889;SDS011;10107;51.198;6.824;2023-04-06T07:38:50;9.88;;;7.57;;
19889;SDS011;10107;51.198;6.824;2023-04-06T07:42:52;12.48;;;8.00;;
19889;SDS011;10107;51.198;6.824;2023-04-06T07:46:54;10.80;;;7.60;;
19889;SDS011;10107;51.198;6.824;2023-04-06T07:51:00;12.70;;;8.52;;
19889;SDS011;10107;51.198;6.824;2023-04-06T07:55:04;12.25;;;8.07;;
19889;SDS011;10107;51.198;6.824;2023-04-06T07:59:06;10.38;;;7.93;;
19889;SDS011;10107;51.198;6.824;2023-04-06T08:03:08;13.10;;;7.70;;
19889;SDS011;10107;51.198;6.824;2023-04-06T08:07:10;10.85;;;8.18;;
19889;SDS011;10107;51.198;6.824;2023-04-06T08:11:13;13.65;;;8.52;;
19889;SDS011;10107;51.198;6.824;2023-04-06T08:15:15;13.70;;;9.10;;
19889;SDS011;10107;51.198;6.824;2023-04-06T08:19:18;13.48;;;8.75;;
19889;SDS011;10107;51.198;6.824;2023-04-06T08:23:20;13.68;;;8.60;;
19889;SDS011;10107;51.198;6.824;2023-04-06T08:27:23;13.18;;;7.82;;
19889;SDS011;10107;51.198;6.824;2023-04-06T08:31:24;13.47;;;9.33;;
19889;SDS011;10107;51.198;6.824;2023-04-06T08:35:26;13.23;;;8.82;;
19889;SDS011;10107;51.198;6.824;2023-04-06T08:39:28;12.93;;;8.85;;
19889;SDS011;10107;51.198;6.824;2023-04-06T08:43:32;12.77;;;8.70;;
19889;SDS011;10107;51.198;6.824;2023-04-06T08:47:37;15.63;;;9.00;;
19889;SDS011;10107;51.198;6.824;2023-04-06T08:51:38;13.95;;;9.20;;
19889;SDS011;10107;51.198;6.824;2023-04-06T08:55:42;14.52;;;10.88;;
19889;SDS011;10107;51.198;6.824;2023-04-06T08:59:46;15.57;;;10.45;;
19889;SDS011;10107;51.198;6.824;2023-04-06T09:03:48;17.45;;;10.65;;
19889;SDS011;10107;51.198;6.824;2023-04-06T09:07:51;16.25;;;10.55;;
19889;SDS011;10107;51.198;6.824;2023-04-06T09:11:53;19.25;;;11.02;;
19889;SDS011;10107;51.198;6.824;2023-04-06T09:16:05;21.38;;;11.60;;
19889;SDS011;10107;51.198;6.824;2023-04-06T09:20:07;16.13;;;9.75;;
19889;SDS011;10107;51.198;6.824;2023-04-06T09:24:09;17.17;;;10.60;;
19889;SDS011;10107;51.198;6.824;2023-04-06T09:28:11;17.23;;;10.48;;
19889;SDS011;10107;51.198;6.824;2023-04-06T09:32:14;15.77;;;9.65;;
19889;SDS011;10107;51.198;6.824;2023-04-06T09:36:16;18.23;;;10.48;;
19889;SDS011;10107;51.198;6.824;2023-04-06T09:40:19;20.17;;;10.40;;
19889;SDS011;10107;51.198;6.824;2023-04-06T09:44:22;17.38;;;11.35;;
19889;SDS011;10107;51.198;6.824;2023-04-06T09:48:26;17.02;;;10.73;;
19889;SDS011;10107;51.198;6.824;2023-04-06T09:52:32;19.48;;;11.98;;
19889;SDS011;10107;51.198;6.824;2023-04-06T09:56:37;13.83;;;8.93;;
19889;SDS011;10107;51.198;6.824;2023-04-06T10:00:47;18.80;;;11.85;;
19889;SDS011;10107;51.198;6.824;2023-04-06T10:04:55;17.13;;;11.32;;
19889;SDS011;10107;51.198;6.824;2023-04-06T10:09:00;18.75;;;11.70;;
19889;SDS011;10107;51.198;6.824;2023-04-06T10:13:05;18.73;;;11.40;;
19889;SDS011;10107;51.198;6.824;2023-04-06T10:17:07;20.65;;;12.38;;
19889;SDS011;10107;51.198;6.824;2023-04-06T10:21:11;21.92;;;12.65;;
19889;SDS011;10107;51.198;6.824;2023-04-06T10:25:16;18.20;;;11.98;;
19889;SDS011;10107;51.198;6.824;2023-04-06T10:29:17;17.98;;;11.50;;
19889;SDS011;10107;51.198;6.824;2023-04-06T10:33:20;20.75;;;12.30;;
19889;SDS011;10107;51.198;6.824;2023-04-06T10:37:24;18.52;;;12.07;;
19889;SDS011;10107;51.198;6.824;2023-04-06T10:41:31;19.83;;;12.93;;
19889;SDS011;10107;51.198;6.824;2023-04-06T10:45:34;20.13;;;12.27;;
19889;SDS011;10107;51.198;6.824;2023-04-06T10:49:37;16.65;;;11.07;;
19889;SDS011;10107;51.198;6.824;2023-04-06T10:53:40;22.63;;;12.48;;
19889;SDS011;10107;51.198;6.824;2023-04-06T10:57:43;19.98;;;11.52;;
19889;SDS011;10107;51.198;6.824;2023-04-06T11:01:47;18.77;;;11.70;;
19889;SDS011;10107;51.198;6.824;2023-04-06T11:05:50;18.52;;;10.65;;
19889;SDS011;10107;51.198;6.824;2023-04-06T11:09:53;13.77;;;7.93;;
19889;SDS011;10107;51.198;6.824;2023-04-06T11:13:55;12.98;;;8.27;;
19889;SDS011;10107;51.198;6.824;2023-04-06T11:17:58;14.13;;;7.93;;
19889;SDS011;10107;51.198;6.824;2023-04-06T11:22:06;17.70;;;11.70;;
19889;SDS011;10107;51.198;6.824;2023-04-06T11:26:11;18.70;;;11.30;;
19889;SDS011;10107;51.198;6.824;2023-04-06T11:30:14;21.05;;;12.60;;
19889;SDS011;10107;51.198;6.824;2023-04-06T11:34:16;17.73;;;11.75;;
19889;SDS011;10107;51.198;6.824;2023-04-06T11:38:19;13.20;;;7.90;;
19889;SDS011;10107;51.198;6.824;2023-04-06T11:42:22;18.73;;;11.40;;
19889;SDS011;10107;51.198;6.824;2023-04-06T11:46:25;18.48;;;11.43;;
19889;SDS011;10107;51.198;6.824;2023-04-06T11:50:31;16.17;;;10.32;;
19889;SDS011;10107;51.198;6.824;2023-04-06T11:54:34;16.00;;;9.82;;
19889;SDS011;10107;51.198;6.824;2023-04-06T11:58:38;17.88;;;11.07;;
19889;SDS011;10107;51.198;6.824;2023-04-06T12:02:40;18.57;;;10.40;;
19889;SDS011;10107;51.198;6.824;2023-04-06T12:06:47;16.30;;;9.73;;
19889;SDS011;10107;51.198;6.824;2023-04-06T12:10:49;17.60;;;10.05;;
19889;SDS011;10107;51.198;6.824;2023-04-06T12:14:52;17.33;;;9.73;;
19889;SDS011;10107;51.198;6.824;2023-04-06T12:18:54;19.57;;;12.17;;
19889;SDS011;10107;51.198;6.824;2023-04-06T12:22:56;17.63;;;10.85;;
19889;SDS011;10107;51.198;6.824;2023-04-06T12:26:57;16.48;;;10.10;;
19889;SDS011;10107;51.198;6.824;2023-04-06T12:31:01;17.95;;;10.98;;
19889;SDS011;10107;51.198;6.824;2023-04-06T12:35:02;16.17;;;10.93;;
19889;SDS011;10107;51.198;6.824;2023-04-06T12:39:05;16.33;;;9.60;;
19889;SDS011;10107;51.198;6.824;2023-04-06T12:43:07;14.77;;;8.68;;
19889;SDS011;10107;51.198;6.824;2023-04-06T12:47:10;14.13;;;8.93;;
19889;SDS011;10107;51.198;6.824;2023-04-06T12:51:12;13.63;;;8.75;;
19889;SDS011;10107;51.198;6.824;2023-04-06T12:55:14;15.10;;;8.93;;
19889;SDS011;10107;51.198;6.824;2023-04-06T12:59:16;13.98;;;8.38;;
19889;SDS011;10107;51.198;6.824;2023-04-06T13:03:19;15.70;;;9.30;;
19889;SDS011;10107;51.198;6.824;2023-04-06T13:07:22;12.48;;;8.00;;
19889;SDS011;10107;51.198;6.824;2023-04-06T13:11:25;14.18;;;8.60;;
19889;SDS011;10107;51.198;6.824;2023-04-06T13:15:27;14.17;;;8.50;;
19889;SDS011;10107;51.198;6.824;2023-04-06T13:19:30;11.32;;;7.75;;
19889;SDS011;10107;51.198;6.824;2023-04-06T13:23:32;11.73;;;7.60;;
19889;SDS011;10107;51.198;6.824;2023-04-06T13:27:35;12.77;;;7.97;;
19889;SDS011;10107;51.198;6.824;2023-04-06T13:31:36;12.80;;;7.55;;
19889;SDS011;10107;51.198;6.824;2023-04-06T13:35:40;10.00;;;7.13;;
19889;SDS011;10107;51.198;6.824;2023-04-06T13:39:45;11.20;;;7.55;;
19889;SDS011;10107;51.198;6.824;2023-04-06T13:43:47;10.85;;;7.63;;
19889;SDS011;10107;51.198;6.824;2023-04-06T13:47:49;10.05;;;6.95;;
19889;SDS011;10107;51.198;6.824;2023-04-06T13:51:53;12.82;;;7.88;;
19889;SDS011;10107;51.198;6.824;2023-04-06T13:55:55;11.50;;;7.13;;
19889;SDS011;10107;51.198;6.824;2023-04-06T13:59:56;9.68;;;6.75;;
19889;SDS011;10107;51.198;6.824;2023-04-06T14:03:58;9.70;;;6.78;;
19889;SDS011;10107;51.198;6.824;2023-04-06T14:08:01;11.73;;;6.72;;
19889;SDS011;10107;51.198;6.824;2023-04-06T14:12:03;10.53;;;7.27;;
19889;SDS011;10107;51.198;6.824;2023-04-06T14:16:06;12.07;;;6.60;;
19889;SDS011;10107;51.198;6.824;2023-04-06T14:20:08;9.60;;;6.28;;
19889;SDS011;10107;51.198;6.824;2023-04-06T14:24:15;9.38;;;6.10;;
19889;SDS011;10107;51.198;6.824;2023-04-06T14:28:17;8.35;;;5.60;;
19889;SDS011;10107;51.198;6.824;2023-04-06T14:32:19;8.32;;;6.03;;
19889;SDS011;10107;51.198;6.824;2023-04-06T14:36:21;9.27;;;5.75;;
19889;SDS011;10107;51.198;6.824;2023-04-06T14:40:24;11.40;;;7.18;;
19889;SDS011;10107;51.198;6.824;2023-04-06T14:44:26;11.80;;;7.33;;
19889;SDS011;10107;51.198;6.824;2023-04-06T14:48:27;10.95;;;6.70;;
19889;SDS011;10107;51.198;6.824;2023-04-06T14:52:29;11.38;;;6.90;;
19889;SDS011;10107;51.198;6.824;2023-04-06T14:56:32;13.00;;;8.40;;
19889;SDS011;10107;51.198;6.824;2023-04-06T15:00:34;9.70;;;8.07;;
19889;SDS011;10107;51.198;6.824;2023-04-06T15:04:35;12.43;;;7.25;;
19889;SDS011;10107;51.198;6.824;2023-04-06T15:08:37;11.18;;;6.75;;
19889;SDS011;10107;51.198;6.824;2023-04-06T15:12:40;11.23;;;6.82;;
19889;SDS011;10107;51.198;6.824;2023-04-06T15:16:42;9.70;;;6.60;;
19889;SDS011;10107;51.198;6.824;2023-04-06T15:20:43;11.70;;;6.65;;
19889;SDS011;10107;51.198;6.824;2023-04-06T15:24:45;10.25;;;6.43;;
19889;SDS011;10107;51.198;6.824;2023-04-06T15:28:48;10.45;;;6.65;;
19889;SDS011;10107;51.198;6.824;2023-04-06T15:32:51;12.60;;;6.70;;
19889;SDS011;10107;51.198;6.824;2023-04-06T15:36:54;8.93;;;6.03;;
19889;SDS011;10107;51.198;6.824;2023-04-06T15:40:58;10.15;;;7.38;;
19889;SDS011;10107;51.198;6.824;2023-04-06T15:45:01;11.90;;;6.90;;
19889;SDS011;10107;51.198;6.824;2023-04-06T15:49:03;10.93;;;7.30;;
19889;SDS011;10107;51.198;6.824;2023-04-06T15:53:05;12.50;;;7.65;;
19889;SDS011;10107;51.198;6.824;2023-04-06T15:57:06;12.98;;;8.40;;
19889;SDS011;10107;51.198;6.824;2023-04-06T16:01:13;13.88;;;8.30;;
19889;SDS011;10107;51.198;6.824;2023-04-06T16:05:16;15.02;;;8.60;;
19889;SDS011;10107;51.198;6.824;2023-04-06T16:09:17;11.38;;;7.78;;
19889;SDS011;10107;51.198;6.824;2023-04-06T16:13:19;12.60;;;8.48;;
19889;SDS011;10107;51.198;6.824;2023-04-06T16:17:22;11.48;;;7.97;;
19889;SDS011;10107;51.198;6.824;2023-04-06T16:21:24;14.27;;;9.37;;
19889;SDS011;10107;51.198;6.824;2023-04-06T16:25:27;14.03;;;8.97;;
19889;SDS011;10107;51.198;6.824;2023-04-06T16:29:29;16.40;;;9.67;;
19889;SDS011;10107;51.198;6.824;2023-04-06T16:33:33;16.05;;;9.80;;
19889;SDS011;10107;51.198;6.824;2023-04-06T16:37:34;16.50;;;9.83;;
19889;SDS011;10107;51.198;6.824;2023-04-06T16:41:36;15.95;;;9.90;;
19889;SDS011;10107;51.198;6.824;2023-04-06T16:45:38;21.95;;;14.18;;
19889;SDS011;10107;51.198;6.824;2023-04-06T16:49:42;18.27;;;9.88;;
19889;SDS011;10107;51.198;6.824;2023-04-06T16:53:44;18.08;;;12.23;;
19889;SDS011;10107;51.198;6.824;2023-04-06T16:57:46;15.00;;;10.05;;
19889;SDS011;10107;51.198;6.824;2023-04-06T17:01:49;14.82;;;10.43;;
19889;SDS011;10107;51.198;6.824;2023-04-06T17:05:52;15.65;;;10.40;;
19889;SDS011;10107;51.198;6.824;2023-04-06T17:09:53;11.10;;;7.28;;
19889;SDS011;10107;51.198;6.824;2023-04-06T17:13:55;20.23;;;12.57;;
19889;SDS011;10107;51.198;6.824;2023-04-06T17:17:57;19.23;;;12.00;;
19889;SDS011;10107;51.198;6.824;2023-04-06T17:22:00;17.55;;;12.10;;
19889;SDS011;10107;51.198;6.824;2023-04-06T17:26:02;18.20;;;11.23;;
19889;SDS011;10107;51.198;6.824;2023-04-06T17:30:04;17.45;;;11.20;;
19889;SDS011;10107;51.198;6.824;2023-04-06T17:34:09;16.33;;;10.93;;
19889;SDS011;10107;51.198;6.824;2023-04-06T17:38:11;20.83;;;12.25;;
19889;SDS011;10107;51.198;6.824;2023-04-06T17:42:13;20.57;;;11.70;;
19889;SDS011;10107;51.198;6.824;2023-04-06T17:46:15;14.63;;;10.77;;
19889;SDS011;10107;51.198;6.824;2023-04-06T17:50:17;18.35;;;13.90;;
19889;SDS011;10107;51.198;6.824;2023-04-06T17:54:20;17.10;;;10.15;;
19889;SDS011;10107;51.198;6.824;2023-04-06T17:58:21;14.03;;;9.03;;
19889;SDS011;10107;51.198;6.824;2023-04-06T18:02:23;14.85;;;9.32;;
19889;SDS011;10107;51.198;6.824;2023-04-06T18:06:25;15.63;;;10.60;;
19889;SDS011;10107;51.198;6.824;2023-04-06T18:10:28;16.17;;;11.35;;
19889;SDS011;10107;51.198;6.824;2023-04-06T18:14:30;14.93;;;10.27;;
19889;SDS011;10107;51.198;6.824;2023-04-06T18:18:32;16.45;;;9.88;;
19889;SDS011;10107;51.198;6.824;2023-04-06T18:22:34;23.95;;;14.60;;
19889;SDS011;10107;51.198;6.824;2023-04-06T18:26:38;23.92;;;15.70;;
19889;SDS011;10107;51.198;6.824;2023-04-06T18:30:39;12.77;;;9.02;;
19889;SDS011;10107;51.198;6.824;2023-04-06T18:34:41;20.63;;;12.38;;
19889;SDS011;10107;51.198;6.824;2023-04-06T18:38:45;16.77;;;10.33;;
19889;SDS011;10107;51.198;6.824;2023-04-06T18:42:49;19.88;;;13.68;;
19889;SDS011;10107;51.198;6.824;2023-04-06T18:46:50;16.17;;;9.87;;
19889;SDS011;10107;51.198;6.824;2023-04-06T18:50:52;21.00;;;13.75;;
19889;SDS011;10107;51.198;6.824;2023-04-06T18:54:54;24.27;;;14.23;;
19889;SDS011;10107;51.198;6.824;2023-04-06T18:58:57;21.63;;;14.82;;
19889;SDS011;10107;51.198;6.824;2023-04-06T19:02:59;20.45;;;13.80;;
19889;SDS011;10107;51.198;6.824;2023-04-06T19:07:01;23.27;;;14.25;;
19889;SDS011;10107;51.198;6.824;2023-04-06T19:11:05;23.42;;;14.20;;
19889;SDS011;10107;51.198;6.824;2023-04-06T19:15:10;21.08;;;13.35;;
19889;SDS011;10107;51.198;6.824;2023-04-06T19:19:12;22.58;;;15.30;;
19889;SDS011;10107;51.198;6.824;2023-04-06T19:23:14;21.10;;;14.75;;
19889;SDS011;10107;51.198;6.824;2023-04-06T19:27:16;20.77;;;14.25;;
19889;SDS011;10107;51.198;6.824;2023-04-06T19:31:19;21.13;;;14.05;;
19889;SDS011;10107;51.198;6.824;2023-04-06T19:35:21;21.02;;;13.05;;
19889;SDS011;10107;51.198;6.824;2023-04-06T19:39:23;19.92;;;13.13;;
19889;SDS011;10107;51.198;6.824;2023-04-06T19:43:25;21.92;;;15.02;;
19889;SDS011;10107;51.198;6.824;2023-04-06T19:47:29;22.58;;;14.80;;
19889;SDS011;10107;51.198;6.824;2023-04-06T19:51:31;19.55;;;14.02;;
19889;SDS011;10107;51.198;6.824;2023-04-06T19:55:33;22.38;;;14.02;;
19889;SDS011;10107;51.198;6.824;2023-04-06T19:59:35;25.42;;;15.73;;
19889;SDS011;10107;51.198;6.824;2023-04-06T20:03:38;24.45;;;15.75;;
19889;SDS011;10107;51.198;6.824;2023-04-06T20:07:40;22.90;;;16.00;;
19889;SDS011;10107;51.198;6.824;2023-04-06T20:11:42;22.55;;;14.88;;
19889;SDS011;10107;51.198;6.824;2023-04-06T20:15:43;24.48;;;15.90;;
19889;SDS011;10107;51.198;6.824;2023-04-06T20:19:47;21.80;;;14.40;;
19889;SDS011;10107;51.198;6.824;2023-04-06T20:23:51;23.38;;;15.32;;
19889;SDS011;10107;51.198;6.824;2023-04-06T20:27:53;22.58;;;16.00;;
19889;SDS011;10107;51.198;6.824;2023-04-06T20:31:54;20.77;;;14.32;;
19889;SDS011;10107;51.198;6.824;2023-04-06T20:35:58;21.70;;;14.00;;
19889;SDS011;10107;51.198;6.824;2023-04-06T20:40:01;20.13;;;13.98;;
19889;SDS011;10107;51.198;6.824;2023-04-06T20:44:03;22.35;;;15.20;;
19889;SDS011;10107;51.198;6.824;2023-04-06T20:48:05;21.95;;;14.73;;
19889;SDS011;10107;51.198;6.824;2023-04-06T20:52:08;18.58;;;13.13;;
19889;SDS011;10107;51.198;6.824;2023-04-06T20:56:10;14.43;;;9.73;;
19889;SDS011;10107;51.198;6.824;2023-04-06T21:00:12;21.17;;;13.63;;
19889;SDS011;10107;51.198;6.824;2023-04-06T21:04:14;20.10;;;13.77;;
19889;SDS011;10107;51.198;6.824;2023-04-06T21:08:18;20.35;;;13.93;;
19889;SDS011;10107;51.198;6.824;2023-04-06T21:12:20;14.30;;;9.65;;
19889;SDS011;10107;51.198;6.824;2023-04-06T21:16:22;23.10;;;13.95;;
19889;SDS011;10107;51.198;6.824;2023-04-06T21:20:23;19.00;;;13.45;;
19889;SDS011;10107;51.198;6.824;2023-04-06T21:24:26;20.30;;;12.75;;
19889;SDS011;10107;51.198;6.824;2023-04-06T21:28:28;21.07;;;12.70;;
19889;SDS011;10107;51.198;6.824;2023-04-06T21:32:29;17.98;;;11.82;;
19889;SDS011;10107;51.198;6.824;2023-04-06T21:36:31;19.23;;;13.23;;
19889;SDS011;10107;51.198;6.824;2023-04-06T21:40:35;12.50;;;9.00;;
19889;SDS011;10107;51.198;6.824;2023-04-06T21:44:37;21.37;;;13.17;;
19889;SDS011;10107;51.198;6.824;2023-04-06T21:48:39;19.00;;;13.00;;
19889;SDS011;10107;51.198;6.824;2023-04-06T21:52:40;18.10;;;12.18;;
19889;SDS011;10107;51.198;6.824;2023-04-06T21:56:43;17.77;;;12.68;;
19889;SDS011;10107;51.198;6.824;2023-04-06T22:00:45;18.37;;;12.83;;
19889;SDS011;10107;51.198;6.824;2023-04-06T22:04:46;17.90;;;11.73;;
19889;SDS011;10107;51.198;6.824;2023-04-06T22:08:48;17.25;;;12.05;;
19889;SDS011;10107;51.198;6.824;2023-04-06T22:12:51;19.40;;;13.57;;
19889;SDS011;10107;51.198;6.824;2023-04-06T22:16:53;16.57;;;11.63;;
19889;SDS011;10107;51.198;6.824;2023-04-06T22:20:55;17.10;;;12.48;;
19889;SDS011;10107;51.198;6.824;2023-04-06T22:24:57;18.50;;;13.02;;
19889;SDS011;10107;51.198;6.824;2023-04-06T22:29:01;18.92;;;13.23;;
19889;SDS011;10107;51.198;6.824;2023-04-06T22:33:03;20.02;;;13.93;;
19889;SDS011;10107;51.198;6.824;2023-04-06T22:37:05;19.90;;;13.80;;
19889;SDS011;10107;51.198;6.824;2023-04-06T22:41:06;22.83;;;14.13;;
19889;SDS011;10107;51.198;6.824;2023-04-06T22:45:10;23.00;;;14.73;;
19889;SDS011;10107;51.198;6.824;2023-04-06T22:49:11;21.73;;;14.50;;
19889;SDS011;10107;51.198;6.824;2023-04-06T22:53:13;25.10;;;15.60;;
19889;SDS011;10107;51.198;6.824;2023-04-06T22:57:14;22.88;;;15.02;;
19889;SDS011;10107;51.198;6.824;2023-04-06T23:01:17;25.38;;;16.27;;
19889;SDS011;10107;51.198;6.824;2023-04-06T23:05:19;17.33;;;11.80;;
19889;SDS011;10107;51.198;6.824;2023-04-06T23:09:21;22.90;;;15.60;;
19889;SDS011;10107;51.198;6.824;2023-04-06T23:13:22;24.15;;;15.60;;
19889;SDS011;10107;51.198;6.824;2023-04-06T23:17:25;21.35;;;14.38;;
19889;SDS011;10107;51.198;6.824;2023-04-06T23:21:27;19.73;;;12.33;;
19889;SDS011;10107;51.198;6.824;2023-04-06T23:25:29;27.13;;;17.25;;
19889;SDS011;10107;51.198;6.824;2023-04-06T23:29:30;29.85;;;18.83;;
19889;SDS011;10107;51.198;6.824;2023-04-06T23:33:33;25.02;;;17.13;;
19889;SDS011;10107;51.198;6.824;2023-04-06T23:37:35;26.60;;;17.57;;
19889;SDS011;10107;51.198;6.824;2023-04-06T23:41:36;23.02;;;14.30;;
19889;SDS011;10107;51.198;6.824;2023-04-06T23:45:38;19.05;;;12.88;;
19889;SDS011;10107;51.198;6.824;2023-04-06T23:49:42;23.33;;;14.53;;
19889;SDS011;10107;51.198;6.824;2023-04-06T23:53:44;23.05;;;15.13;;
19889;SDS011;10107;51.198;6.824;2023-04-06T23:57:46;22.45;;;14.43;;
